createdAt,value
2019-05-19T00:00:05.651Z,8.33
2019-05-19T00:02:34.222Z,7.43
2019-05-19T00:05:02.967Z,7.13
2019-05-19T00:07:31.927Z,9.05
2019-05-19T00:10:00.770Z,9.03
2019-05-19T00:12:29.347Z,9.40
2019-05-19T00:14:58.039Z,10.17
2019-05-19T00:17:26.622Z,8.47
2019-05-19T00:19:55.199Z,7.97
2019-05-19T00:22:23.813Z,8.90
2019-05-19T00:24:52.405Z,8.77
2019-05-19T00:27:20.997Z,7.40
2019-05-19T00:29:49.620Z,8.07
2019-05-19T00:32:18.272Z,7.93
2019-05-19T00:34:46.850Z,6.77
2019-05-19T00:37:15.482Z,7.57
2019-05-19T00:39:44.067Z,6.67
2019-05-19T00:42:13.128Z,7.55
2019-05-19T00:44:42.121Z,7.80
2019-05-19T00:47:10.841Z,7.13
2019-05-19T00:49:41.742Z,7.53
2019-05-19T00:52:09.966Z,7.27
2019-05-19T00:54:38.628Z,7.07
2019-05-19T00:57:08.141Z,6.63
2019-05-19T00:59:38.196Z,7.43
2019-05-19T01:02:06.788Z,6.60
2019-05-19T01:04:35.513Z,7.50
2019-05-19T01:07:04.124Z,7.70
2019-05-19T01:09:32.707Z,8.03
2019-05-19T01:12:01.295Z,7.27
2019-05-19T01:14:29.929Z,7.23
2019-05-19T01:16:58.507Z,7.47
2019-05-19T01:19:27.069Z,8.30
2019-05-19T01:21:58.101Z,7.93
2019-05-19T01:24:26.683Z,8.03
2019-05-19T01:26:55.267Z,7.50
2019-05-19T01:29:23.890Z,8.33
2019-05-19T01:31:52.542Z,6.80
2019-05-19T01:34:21.125Z,8.13
2019-05-19T01:36:49.950Z,7.22
2019-05-19T01:39:18.537Z,7.23
2019-05-19T01:41:47.126Z,6.90
2019-05-19T01:44:15.729Z,8.27
2019-05-19T01:46:44.316Z,7.33
2019-05-19T01:49:12.904Z,7.97
2019-05-19T01:51:41.582Z,7.47
2019-05-19T01:54:10.107Z,7.80
2019-05-19T01:56:38.697Z,7.27
2019-05-19T01:59:07.334Z,7.63
2019-05-19T02:01:35.902Z,7.70
2019-05-19T02:04:04.554Z,7.40
2019-05-19T02:06:33.235Z,7.10
2019-05-19T02:09:01.815Z,6.97
2019-05-19T02:11:30.584Z,7.43
2019-05-19T02:13:59.203Z,7.47
2019-05-19T02:16:27.792Z,8.20
2019-05-19T02:18:56.383Z,7.73
2019-05-19T02:21:25.019Z,8.77
2019-05-19T02:23:53.906Z,7.35
2019-05-19T02:26:22.491Z,7.33
2019-05-19T02:28:51.415Z,8.78
2019-05-19T02:31:20.003Z,7.40
2019-05-19T02:33:48.592Z,7.53
2019-05-19T02:36:17.298Z,7.30
2019-05-19T02:38:45.888Z,8.00
2019-05-19T02:41:17.400Z,8.77
2019-05-19T02:43:46.965Z,9.10
2019-05-19T02:46:15.982Z,7.50
2019-05-19T02:48:45.179Z,7.27
2019-05-19T02:51:15.338Z,7.33
2019-05-19T02:53:44.863Z,7.30
2019-05-19T02:56:14.489Z,6.13
2019-05-19T02:58:44.608Z,7.83
2019-05-19T03:01:13.221Z,7.30
2019-05-19T03:03:42.096Z,7.27
2019-05-19T03:06:11.012Z,6.70
2019-05-19T03:08:39.602Z,6.20
2019-05-19T03:11:08.207Z,6.77
2019-05-19T03:13:37.130Z,16.75
2019-05-19T03:16:05.776Z,7.97
2019-05-19T03:18:34.332Z,6.57
2019-05-19T03:21:11.262Z,7.75
2019-05-19T03:23:33.611Z,6.87
2019-05-19T03:26:02.208Z,7.10
2019-05-19T03:28:30.848Z,6.57
2019-05-19T03:31:04.143Z,8.23
2019-05-19T03:33:43.406Z,7.90
2019-05-19T03:36:12.068Z,6.93
2019-05-19T03:38:40.651Z,7.43
2019-05-19T03:41:09.272Z,6.10
2019-05-19T03:43:37.862Z,6.87
2019-05-19T03:46:06.518Z,6.90
2019-05-19T03:48:35.147Z,7.63
2019-05-19T03:51:03.822Z,6.77
2019-05-19T03:53:32.398Z,6.47
2019-05-19T03:56:02.484Z,8.55
2019-05-19T03:58:31.070Z,8.23
2019-05-19T04:00:59.646Z,7.70
2019-05-19T04:03:28.355Z,6.57
2019-05-19T04:05:56.975Z,7.90
2019-05-19T04:08:25.533Z,7.60
2019-05-19T04:10:54.157Z,7.80
2019-05-19T04:13:22.750Z,7.40
2019-05-19T04:15:51.385Z,7.53
2019-05-19T04:18:19.984Z,7.73
2019-05-19T04:20:48.665Z,6.57
2019-05-19T04:23:17.243Z,6.87
2019-05-19T04:25:45.863Z,8.00
2019-05-19T04:28:14.445Z,7.73
2019-05-19T04:30:43.043Z,7.60
2019-05-19T04:33:11.683Z,8.07
2019-05-19T04:35:40.254Z,7.23
2019-05-19T04:38:08.843Z,7.73
2019-05-19T04:40:37.563Z,8.17
2019-05-19T04:47:57.676Z,7.97
2019-05-19T05:04:33.209Z,8.27
2019-05-19T05:07:01.877Z,8.50
2019-05-19T05:09:30.529Z,9.00
2019-05-19T05:14:33.676Z,7.80
2019-05-19T05:17:02.319Z,8.47
2019-05-19T05:19:30.907Z,7.23
2019-05-19T05:21:59.544Z,7.27
2019-05-19T05:24:28.755Z,7.57
2019-05-19T05:26:57.475Z,6.97
2019-05-19T05:29:26.116Z,7.67
2019-05-19T05:31:54.777Z,6.90
2019-05-19T05:34:23.365Z,7.77
2019-05-19T05:36:52.000Z,8.50
2019-05-19T05:39:20.575Z,8.50
2019-05-19T05:41:49.149Z,7.80
2019-05-19T05:44:17.754Z,8.23
2019-05-19T05:46:46.323Z,8.87
2019-05-19T05:49:14.898Z,7.87
2019-05-19T05:51:43.826Z,8.07
2019-05-19T05:54:12.542Z,8.20
2019-05-19T05:56:41.120Z,8.23
2019-05-19T05:59:10.006Z,7.90
2019-05-19T06:01:38.558Z,7.63
2019-05-19T06:04:07.146Z,9.00
2019-05-19T06:06:35.827Z,7.70
2019-05-19T06:09:06.161Z,7.70
2019-05-19T06:11:34.730Z,7.30
2019-05-19T06:14:03.421Z,8.30
2019-05-19T06:16:31.988Z,7.50
2019-05-19T06:19:00.575Z,7.60
2019-05-19T06:21:29.198Z,7.07
2019-05-19T06:23:57.757Z,8.50
2019-05-19T06:26:26.343Z,8.73
2019-05-19T06:28:55.042Z,7.93
2019-05-19T06:31:23.691Z,9.27
2019-05-19T06:33:52.829Z,9.10
2019-05-19T06:36:21.459Z,8.50
2019-05-19T06:38:50.045Z,8.10
2019-05-19T06:41:18.602Z,9.20
2019-05-19T06:43:47.292Z,10.63
2019-05-19T06:46:15.865Z,10.20
2019-05-19T06:48:44.449Z,8.97
2019-05-19T06:51:13.236Z,9.37
2019-05-19T06:53:41.829Z,9.47
2019-05-19T06:56:10.483Z,10.53
2019-05-19T06:58:39.110Z,10.10
2019-05-19T07:01:07.768Z,10.23
2019-05-19T07:03:36.358Z,10.27
2019-05-19T07:06:05.035Z,11.80
2019-05-19T07:08:33.623Z,9.57
2019-05-19T07:11:02.252Z,10.27
2019-05-19T07:13:30.877Z,10.53
2019-05-19T07:15:59.543Z,11.90
2019-05-19T07:18:28.212Z,11.73
2019-05-19T07:20:56.834Z,12.00
2019-05-19T07:23:28.314Z,11.67
2019-05-19T07:25:55.732Z,11.57
2019-05-19T07:28:24.361Z,12.10
2019-05-19T07:30:52.947Z,12.67
2019-05-19T07:33:21.594Z,12.50
2019-05-19T07:35:50.207Z,10.10
2019-05-19T07:38:18.800Z,12.37
2019-05-19T07:40:47.455Z,11.53
2019-05-19T07:43:16.182Z,10.97
2019-05-19T07:45:45.331Z,11.40
2019-05-19T07:48:13.933Z,10.60
2019-05-19T07:50:43.185Z,11.08
2019-05-19T07:53:12.375Z,11.35
2019-05-19T07:55:41.538Z,10.98
2019-05-19T07:58:10.843Z,10.98
2019-05-19T08:00:40.071Z,12.10
2019-05-19T08:03:09.264Z,11.08
2019-05-19T08:05:38.499Z,10.68
2019-05-19T08:08:07.772Z,10.38
2019-05-19T08:10:36.955Z,12.35
2019-05-19T08:13:06.248Z,10.13
2019-05-19T08:15:36.305Z,11.25
2019-05-19T08:18:05.546Z,10.85
2019-05-19T08:20:34.789Z,10.78
2019-05-19T08:23:04.086Z,11.70
2019-05-19T08:25:33.294Z,9.98
2019-05-19T08:28:08.617Z,10.98
2019-05-19T08:30:33.558Z,10.40
2019-05-19T08:33:02.832Z,9.95
2019-05-19T08:35:32.140Z,10.03
2019-05-19T08:38:01.334Z,10.40
2019-05-19T08:40:30.544Z,10.50
2019-05-19T08:42:59.764Z,10.35
2019-05-19T08:45:28.950Z,9.45
2019-05-19T08:47:58.131Z,11.30
2019-05-19T08:50:27.371Z,9.93
2019-05-19T08:52:56.549Z,11.57
2019-05-19T08:55:25.141Z,10.40
2019-05-19T08:57:53.783Z,11.80
2019-05-19T09:00:22.509Z,11.13
2019-05-19T09:02:51.159Z,11.27
2019-05-19T09:05:19.791Z,11.87
2019-05-19T09:07:48.373Z,11.30
2019-05-19T09:10:17.201Z,11.63
2019-05-19T09:12:45.832Z,11.33
2019-05-19T09:15:14.760Z,13.97
2019-05-19T09:17:43.375Z,12.00
2019-05-19T09:20:13.216Z,11.77
2019-05-19T09:22:41.822Z,11.87
2019-05-19T09:25:12.234Z,9.90
2019-05-19T09:27:40.857Z,11.50
2019-05-19T09:30:10.690Z,10.77
2019-05-19T09:32:39.272Z,11.00
2019-05-19T09:35:08.246Z,10.63
2019-05-19T09:37:36.836Z,10.07
2019-05-19T09:40:06.954Z,8.37
2019-05-19T09:42:35.581Z,6.13
2019-05-19T09:45:06.421Z,10.30
2019-05-19T09:47:35.097Z,11.30
2019-05-19T09:50:04.288Z,10.80
2019-05-19T09:52:32.874Z,10.13
2019-05-19T09:55:01.555Z,9.63
2019-05-19T09:57:31.027Z,9.83
2019-05-19T09:59:59.678Z,10.40
2019-05-19T10:02:28.311Z,12.20
2019-05-19T10:04:56.944Z,10.70
2019-05-19T10:07:25.514Z,10.13
2019-05-19T10:10:02.499Z,10.20
2019-05-19T10:12:31.416Z,10.10
2019-05-19T10:15:00.072Z,9.27
2019-05-19T10:17:28.873Z,12.03
2019-05-19T10:19:57.593Z,10.27
2019-05-19T10:22:26.262Z,8.40
2019-05-19T10:25:19.847Z,9.83
2019-05-19T10:27:25.408Z,10.70
2019-05-19T10:29:54.002Z,11.43
2019-05-19T10:32:23.241Z,10.23
2019-05-19T10:34:52.484Z,9.70
2019-05-19T10:37:21.889Z,9.53
2019-05-19T10:39:51.158Z,9.00
2019-05-19T10:42:20.330Z,10.80
2019-05-19T10:44:49.516Z,9.60
2019-05-19T10:47:18.809Z,11.05
2019-05-19T10:49:47.978Z,11.63
2019-05-19T10:52:16.576Z,12.57
2019-05-19T10:54:45.190Z,11.30
2019-05-19T10:57:13.846Z,11.13
2019-05-19T10:59:42.436Z,11.40
2019-05-19T11:02:11.163Z,12.53
2019-05-19T11:04:39.750Z,10.40
2019-05-19T11:07:08.338Z,7.17
2019-05-19T11:09:36.975Z,9.90
2019-05-19T11:12:05.627Z,9.40
2019-05-19T11:14:34.239Z,8.10
2019-05-19T11:17:03.188Z,9.00
2019-05-19T11:19:31.776Z,9.50
2019-05-19T11:22:00.367Z,9.40
2019-05-19T11:24:28.987Z,7.60
2019-05-19T11:26:57.565Z,8.83
2019-05-19T11:29:26.223Z,11.20
2019-05-19T11:31:55.078Z,8.90
2019-05-19T11:34:23.668Z,11.93
2019-05-19T11:36:52.243Z,8.33
2019-05-19T11:39:20.865Z,9.03
2019-05-19T11:41:49.451Z,9.70
2019-05-19T11:44:18.054Z,10.03
2019-05-19T11:46:46.674Z,10.60
2019-05-19T11:49:15.269Z,11.30
2019-05-19T11:51:43.916Z,8.83
2019-05-19T11:54:12.765Z,10.73
2019-05-19T11:56:41.350Z,9.43
2019-05-19T11:59:09.937Z,9.20
2019-05-19T12:01:38.623Z,8.70
2019-05-19T12:04:07.206Z,8.37
2019-05-19T12:06:39.629Z,9.17
2019-05-19T12:09:07.902Z,8.33
2019-05-19T12:11:38.240Z,8.33
2019-05-19T12:14:06.852Z,7.90
2019-05-19T12:16:35.562Z,8.73
2019-05-19T12:19:04.234Z,7.00
2019-05-19T12:21:32.818Z,7.73
2019-05-19T12:24:01.487Z,8.63
2019-05-19T12:26:30.064Z,9.83
2019-05-19T12:28:58.649Z,9.60
2019-05-19T12:31:27.291Z,10.50
2019-05-19T12:33:55.883Z,10.60
2019-05-19T12:36:24.466Z,8.00
2019-05-19T12:38:53.088Z,8.17
2019-05-19T12:41:21.749Z,8.43
2019-05-19T12:43:50.324Z,8.40
2019-05-19T12:46:18.952Z,8.73
2019-05-19T12:48:47.540Z,8.60
2019-05-19T12:51:16.458Z,7.13
2019-05-19T12:53:45.148Z,7.37
2019-05-19T12:56:13.736Z,7.20
2019-05-19T12:58:42.342Z,7.30
2019-05-19T13:01:10.977Z,7.63
2019-05-19T13:03:39.565Z,7.23
2019-05-19T13:06:08.147Z,7.63
2019-05-19T13:08:36.776Z,6.80
2019-05-19T13:11:05.509Z,7.00
2019-05-19T13:13:34.094Z,6.00
2019-05-19T13:16:02.731Z,8.07
2019-05-19T13:18:31.376Z,5.63
2019-05-19T13:20:59.971Z,5.97
2019-05-19T13:23:28.813Z,6.70
2019-05-19T13:25:57.411Z,6.50
2019-05-19T13:28:25.995Z,6.90
2019-05-19T13:30:54.611Z,6.90
2019-05-19T13:33:23.275Z,5.47
2019-05-19T13:35:51.860Z,4.20
2019-05-19T13:38:20.491Z,6.53
2019-05-19T13:40:49.131Z,9.27
2019-05-19T13:43:17.734Z,6.80
2019-05-19T13:45:46.359Z,8.23
2019-05-19T13:48:14.948Z,6.90
2019-05-19T13:50:43.613Z,6.57
2019-05-19T13:53:12.246Z,10.37
2019-05-19T13:55:41.303Z,6.30
2019-05-19T13:58:09.926Z,8.50
2019-05-19T14:00:38.661Z,8.03
2019-05-19T14:03:07.240Z,10.53
2019-05-19T14:05:35.907Z,5.87
2019-05-19T14:08:04.555Z,6.00
2019-05-19T14:10:33.143Z,6.10
2019-05-19T14:13:01.715Z,5.60
2019-05-19T14:15:30.594Z,5.90
2019-05-19T14:17:59.213Z,5.10
2019-05-19T14:20:27.953Z,7.20
2019-05-19T14:22:57.002Z,6.10
2019-05-19T14:25:25.897Z,7.70
2019-05-19T14:27:54.770Z,4.63
2019-05-19T14:30:23.418Z,5.70
2019-05-19T14:32:52.020Z,5.70
2019-05-19T14:35:20.958Z,5.25
2019-05-19T14:37:49.667Z,5.00
2019-05-19T14:40:18.921Z,5.60
2019-05-19T14:42:52.078Z,5.50
2019-05-19T14:45:21.653Z,5.13
2019-05-19T14:47:50.305Z,5.10
2019-05-19T14:50:19.182Z,6.17
2019-05-19T14:52:47.842Z,4.90
2019-05-19T14:55:16.853Z,5.35
2019-05-19T14:57:45.864Z,6.60
2019-05-19T15:00:16.514Z,5.83
2019-05-19T15:02:45.073Z,6.93
2019-05-19T15:05:14.529Z,6.87
2019-05-19T15:07:43.234Z,6.33
2019-05-19T15:10:13.376Z,7.17
2019-05-19T15:12:41.979Z,6.80
2019-05-19T15:15:11.750Z,7.13
2019-05-19T15:17:40.722Z,7.47
2019-05-19T15:20:09.616Z,7.30
2019-05-19T15:22:38.369Z,6.07
2019-05-19T15:25:07.815Z,7.60
2019-05-19T15:27:36.398Z,7.53
2019-05-19T15:30:12.980Z,7.53
2019-05-19T15:32:37.253Z,6.83
2019-05-19T15:35:07.178Z,6.20
2019-05-19T15:37:36.540Z,6.40
2019-05-19T15:40:08.269Z,6.00
2019-05-19T15:42:36.848Z,6.50
2019-05-19T15:45:06.789Z,7.17
2019-05-19T15:47:35.445Z,6.07
2019-05-19T15:50:06.476Z,6.00
2019-05-19T15:52:35.095Z,9.73
2019-05-19T15:55:04.349Z,8.30
2019-05-19T15:57:32.943Z,7.03
2019-05-19T16:00:02.082Z,6.87
2019-05-19T16:02:31.345Z,6.80
2019-05-19T16:04:59.936Z,8.77
2019-05-19T16:07:28.574Z,6.97
2019-05-19T16:09:57.168Z,13.20
2019-05-19T16:12:25.766Z,7.73
2019-05-19T16:14:54.404Z,8.63
2019-05-19T16:17:23.001Z,6.70
2019-05-19T16:19:51.578Z,9.10
2019-05-19T16:22:20.516Z,8.20
2019-05-19T16:24:49.116Z,8.77
2019-05-19T16:27:17.708Z,10.33
2019-05-19T16:29:48.084Z,11.43
2019-05-19T16:32:16.666Z,7.37
2019-05-19T16:34:45.245Z,6.33
2019-05-19T16:37:14.031Z,6.60
2019-05-19T16:39:42.629Z,8.10
2019-05-19T16:42:11.202Z,7.57
2019-05-19T16:44:39.846Z,7.87
2019-05-19T16:47:08.423Z,8.10
2019-05-19T16:49:37.005Z,8.43
2019-05-19T16:52:05.699Z,7.70
2019-05-19T16:54:35.948Z,8.80
2019-05-19T16:57:04.546Z,8.67
2019-05-19T16:59:33.347Z,7.00
2019-05-19T17:02:01.949Z,7.60
2019-05-19T17:04:30.522Z,7.90
2019-05-19T17:06:59.134Z,6.37
2019-05-19T17:09:27.704Z,7.50
2019-05-19T17:11:56.288Z,7.53
2019-05-19T17:14:24.920Z,6.60
2019-05-19T17:16:53.527Z,6.77
2019-05-19T17:19:22.164Z,5.90
2019-05-19T17:21:50.843Z,5.93
2019-05-19T17:24:19.428Z,5.30
2019-05-19T17:26:48.014Z,6.57
2019-05-19T17:29:16.631Z,6.20
2019-05-19T17:31:45.282Z,5.67
2019-05-19T17:34:13.877Z,6.00
2019-05-19T17:36:42.539Z,5.30
2019-05-19T17:39:11.107Z,5.67
2019-05-19T17:41:39.711Z,5.50
2019-05-19T17:44:08.342Z,7.53
2019-05-19T17:46:36.920Z,6.10
2019-05-19T17:49:05.589Z,6.30
2019-05-19T17:51:34.374Z,6.27
2019-05-19T17:54:03.045Z,5.93
2019-05-19T17:56:32.102Z,5.70
2019-05-19T17:59:14.610Z,6.00
2019-05-19T18:01:31.764Z,7.77
2019-05-19T18:04:00.359Z,5.97
2019-05-19T18:06:29.897Z,6.30
2019-05-19T18:08:58.498Z,5.40
2019-05-19T18:11:27.171Z,5.53
2019-05-19T18:13:55.773Z,6.50
2019-05-19T18:16:24.455Z,6.17
2019-05-19T18:18:53.105Z,6.20
2019-05-19T18:21:21.819Z,6.00
2019-05-19T18:23:50.473Z,7.10
2019-05-19T18:26:19.155Z,7.10
2019-05-19T18:28:47.747Z,6.00
2019-05-19T18:31:16.338Z,5.77
2019-05-19T18:33:44.932Z,5.80
2019-05-19T18:36:13.858Z,6.30
2019-05-19T18:38:42.529Z,5.60
2019-05-19T18:41:11.140Z,5.60
2019-05-19T18:43:39.761Z,7.07
2019-05-19T18:46:08.423Z,7.70
2019-05-19T18:48:37.001Z,6.50
2019-05-19T18:51:05.624Z,5.80
2019-05-19T18:53:34.248Z,5.93
2019-05-19T18:56:03.077Z,5.30
2019-05-19T18:58:31.714Z,5.73
2019-05-19T19:01:00.467Z,6.10
2019-05-19T19:03:29.191Z,5.60
2019-05-19T19:05:57.830Z,11.80
2019-05-19T19:08:26.510Z,8.60
2019-05-19T19:10:55.185Z,6.00
2019-05-19T19:13:23.816Z,7.20
2019-05-19T19:15:52.414Z,6.67
2019-05-19T19:18:20.997Z,5.90
2019-05-19T19:20:49.637Z,5.70
2019-05-19T19:23:18.320Z,4.83
2019-05-19T19:25:46.994Z,7.83
2019-05-19T19:28:15.677Z,12.77
2019-05-19T19:30:44.525Z,7.70
2019-05-19T19:33:13.129Z,5.77
2019-05-19T19:35:42.490Z,5.93
2019-05-19T19:38:11.177Z,5.90
2019-05-19T19:40:39.850Z,6.67
2019-05-19T19:43:08.561Z,6.73
2019-05-19T19:45:37.160Z,7.40
2019-05-19T19:48:05.799Z,6.57
2019-05-19T19:50:34.783Z,6.60
2019-05-19T19:53:03.477Z,7.03
2019-05-19T19:55:32.086Z,7.20
2019-05-19T19:58:01.019Z,7.10
2019-05-19T20:00:38.416Z,7.00
2019-05-19T20:03:07.746Z,6.97
2019-05-19T20:05:36.417Z,7.40
2019-05-19T20:08:06.025Z,10.07
2019-05-19T20:10:38.969Z,8.80
2019-05-19T20:13:07.672Z,7.80
2019-05-19T20:15:36.871Z,6.73
2019-05-19T20:18:05.738Z,7.23
2019-05-19T20:20:34.395Z,7.00
2019-05-19T20:23:03.041Z,6.20
2019-05-19T20:25:31.722Z,6.97
2019-05-19T20:28:00.308Z,6.33
2019-05-19T20:30:35.699Z,7.73
2019-05-19T20:32:59.332Z,6.40
2019-05-19T20:35:27.907Z,7.43
2019-05-19T20:37:56.557Z,7.27
2019-05-19T20:40:25.247Z,8.10
2019-05-19T20:42:56.667Z,8.00
2019-05-19T20:45:24.200Z,7.83
2019-05-19T20:47:52.827Z,7.80
2019-05-19T20:50:21.433Z,8.80
2019-05-19T20:52:49.991Z,8.37
2019-05-19T20:55:18.675Z,8.33
2019-05-19T20:57:47.560Z,8.80
2019-05-19T21:00:16.281Z,8.17
2019-05-19T21:02:44.902Z,8.50
2019-05-19T21:05:13.816Z,8.00
2019-05-19T21:07:42.525Z,7.27
2019-05-19T21:10:11.233Z,10.50
2019-05-19T21:12:39.801Z,10.53
2019-05-19T21:15:08.728Z,8.87
2019-05-19T21:17:37.341Z,9.10
2019-05-19T21:20:09.509Z,9.40
2019-05-19T21:22:38.157Z,8.63
2019-05-19T21:25:07.853Z,7.90
2019-05-19T21:27:36.435Z,7.60
2019-05-19T21:30:06.294Z,7.73
2019-05-19T21:32:34.907Z,7.57
2019-05-19T21:35:04.628Z,8.40
2019-05-19T21:37:33.722Z,8.48
2019-05-19T21:59:17.991Z,7.87
2019-05-19T22:01:46.707Z,7.60
2019-05-19T22:04:15.298Z,7.90
2019-05-19T22:06:45.810Z,6.80
2019-05-19T22:09:14.411Z,7.70
2019-05-19T22:11:42.995Z,7.97
2019-05-19T22:14:11.609Z,7.13
2019-05-19T22:16:40.193Z,7.60
2019-05-19T22:19:08.848Z,7.97
2019-05-19T22:21:37.482Z,6.67
2019-05-19T22:24:06.050Z,7.40
2019-05-19T22:26:34.649Z,6.93
2019-05-19T22:29:03.565Z,7.70
2019-05-19T22:31:36.969Z,8.27
2019-05-19T22:34:02.449Z,7.43
2019-05-19T22:36:31.073Z,7.40
2019-05-19T22:38:59.673Z,8.03
2019-05-19T22:41:28.239Z,8.50
2019-05-19T22:43:56.873Z,8.57
2019-05-19T22:46:26.762Z,8.50
2019-05-19T22:48:55.653Z,10.50
2019-05-19T22:51:24.305Z,7.70
2019-05-19T22:53:52.939Z,8.50
2019-05-19T22:56:21.528Z,8.20
2019-05-19T22:58:50.160Z,9.23
2019-05-19T23:01:18.752Z,7.30
2019-05-19T23:03:47.363Z,8.50
2019-05-19T23:06:16.151Z,8.23
2019-05-19T23:08:44.797Z,8.10
2019-05-19T23:11:13.416Z,7.07
2019-05-19T23:13:42.129Z,7.83
2019-05-19T23:16:11.084Z,9.00
2019-05-19T23:18:39.961Z,8.68
2019-05-19T23:21:08.766Z,8.87
2019-05-19T23:23:37.651Z,8.63
2019-05-19T23:26:06.234Z,8.20
2019-05-19T23:28:34.866Z,7.43
2019-05-19T23:31:03.447Z,8.20
2019-05-19T23:33:32.024Z,7.90
2019-05-19T23:36:00.637Z,9.60
2019-05-19T23:38:29.220Z,8.50
2019-05-19T23:40:57.803Z,7.43
2019-05-19T23:43:26.434Z,7.57
2019-05-19T23:45:55.030Z,7.00
2019-05-19T23:48:23.653Z,7.93
2019-05-19T23:50:52.281Z,7.63
2019-05-19T23:53:20.866Z,6.70
2019-05-19T23:55:49.456Z,6.40
2019-05-19T23:58:18.095Z,6.87
